Time;durP1;ratioP1;P1;durP2;ratioP2;P2;SDS_P1;SDS_P2;PMS_P1;PMS_P2;Temp;Humidity;BMP_temperature;BMP_pressure;BME280_temperature;BME280_humidity;BME280_pressure;Samples;Min_cycle;Max_cycle;Signal;HPM_P1;HPM_P2
2021/06/26 00:01:34;;;;;;;15.25;11.05;;;13.10;99.90;;;11.88;97.99;97848.19;5023626;28;20387;-67
2021/06/26 00:04:22;;;;;;;15.52;10.77;;;13.00;99.90;;;11.83;98.80;97857.94;5015188;28;20455;-67
2021/06/26 00:07:09;;;;;;;19.33;12.65;;;13.00;99.90;;;11.64;99.96;97845.72;5026491;28;20049;-67
2021/06/26 00:09:56;;;;;;;16.92;10.50;;;13.00;99.90;;;11.66;99.39;97858.66;5010529;28;20046;-67
2021/06/26 00:12:43;;;;;;;21.33;12.82;;;12.90;99.90;;;11.59;99.55;97854.66;5018455;28;20041;-67
2021/06/26 00:15:31;;;;;;;17.00;12.30;;;12.90;99.90;;;11.43;100.00;97860.47;5022043;28;20030;-67
2021/06/26 00:18:19;;;;;;;18.52;12.73;;;12.80;99.90;;;11.45;100.00;97863.03;5014676;28;20104;-67
2021/06/26 00:21:06;;;;;;;20.92;12.35;;;12.80;99.90;;;11.44;100.00;97861.31;5023531;28;20140;-67
2021/06/26 00:23:53;;;;;;;15.27;10.98;;;12.70;99.90;;;11.48;100.00;97862.88;5015578;28;20056;-67
2021/06/26 00:26:41;;;;;;;16.08;12.27;;;12.70;99.90;;;11.37;100.00;97860.72;5029483;28;20041;-67
2021/06/26 00:29:28;;;;;;;19.25;12.27;;;12.60;99.90;;;11.40;100.00;97864.94;5029115;28;20063;-67
2021/06/26 00:32:16;;;;;;;13.38;9.18;;;12.60;99.90;;;11.49;100.00;97864.56;5016921;28;20037;-67
2021/06/26 00:35:04;;;;;;;16.98;11.38;;;12.50;99.90;;;11.44;99.48;97864.75;5027789;28;20136;-67
2021/06/26 00:37:52;;;;;;;18.63;13.30;;;12.40;99.90;;;11.26;100.00;97865.50;5031493;28;20450;-67
2021/06/26 00:40:40;;;;;;;26.38;13.48;;;12.40;99.90;;;11.17;100.00;97866.72;5037444;28;20048;-67
2021/06/26 00:43:27;;;;;;;26.33;16.13;;;12.50;99.90;;;11.14;100.00;97859.06;5032024;28;20044;-67
2021/06/26 00:46:15;;;;;;;13.27;10.20;;;12.50;99.90;;;11.21;100.00;97852.72;5017032;28;20052;-67
2021/06/26 00:49:04;;;;;;;14.15;9.65;;;12.50;99.90;;;11.50;99.98;97856.72;5030375;28;20124;-67
2021/06/26 00:51:52;;;;;;;16.42;9.13;;;12.40;99.90;;;11.60;98.29;97846.75;5014008;28;20521;-67
2021/06/26 00:54:39;;;;;;;25.70;10.57;;;12.40;99.90;;;11.47;99.27;97845.56;5046616;28;20093;-67
2021/06/26 00:57:28;;;;;;;12.85;9.40;;;12.40;99.90;;;11.58;98.71;97845.97;5022557;28;20060;-66
2021/06/26 01:00:17;;;;;;;16.23;12.45;;;12.40;99.90;;;11.50;99.06;97840.28;5031535;28;20041;-68
2021/06/26 01:03:06;;;;;;;18.20;12.68;;;12.30;99.90;;;11.37;99.37;97839.94;5030761;28;20051;-67
2021/06/26 01:05:53;;;;;;;15.10;9.85;;;12.40;99.90;;;11.38;99.84;97846.84;5030790;28;20056;-67
2021/06/26 01:08:41;;;;;;;13.77;9.98;;;12.40;99.90;;;11.21;100.00;97849.28;5030765;28;20147;-67
2021/06/26 01:11:29;;;;;;;15.88;12.38;;;12.40;99.90;;;11.17;100.00;97851.13;5034423;28;20044;-67
2021/06/26 01:14:18;;;;;;;15.73;10.95;;;12.30;99.90;;;11.19;100.00;97845.88;5029380;28;20041;-68
2021/06/26 01:17:09;;;;;;;13.77;9.40;;;12.30;99.90;;;11.28;100.00;97843.75;5029121;28;20046;-68
2021/06/26 01:19:56;;;;;;;15.00;8.90;;;12.20;99.90;;;11.38;99.87;97841.63;5029796;28;20067;-67
2021/06/26 01:22:46;;;;;;;11.93;8.80;;;12.10;99.90;;;11.29;100.00;97845.47;5032252;28;20069;-67
2021/06/26 01:25:34;;;;;;;15.10;10.65;;;12.20;99.90;;;11.17;100.00;97845.09;5029717;28;20041;-67
2021/06/26 01:28:21;;;;;;;14.45;10.70;;;12.20;99.90;;;11.17;100.00;97848.53;5020603;28;20130;-67
2021/06/26 01:31:09;;;;;;;12.60;9.43;;;12.20;99.90;;;11.30;100.00;97843.69;5032220;28;20044;-67
2021/06/26 01:33:56;;;;;;;19.63;10.85;;;12.10;99.90;;;11.32;99.71;97838.44;5028923;28;20045;-67
2021/06/26 01:36:44;;;;;;;15.23;9.25;;;12.10;99.90;;;11.29;99.68;97836.81;5030114;28;20476;-68
2021/06/26 01:39:31;;;;;;;14.77;11.02;;;12.00;99.90;;;11.06;100.00;97838.59;5030322;28;20045;-67
2021/06/26 01:42:18;;;;;;;16.20;10.50;;;12.00;99.90;;;11.11;100.00;97838.41;5047351;28;20045;-68
2021/06/26 01:45:06;;;;;;;13.88;10.32;;;12.00;99.90;;;11.17;100.00;97838.16;5030103;28;20041;-68
2021/06/26 01:47:58;;;;;;;25.25;13.70;;;12.00;99.90;;;11.07;100.00;97832.47;5027725;28;20545;-67
2021/06/26 01:50:46;;;;;;;13.85;10.43;;;12.00;99.90;;;10.98;100.00;97840.66;5028210;28;20371;-67
2021/06/26 01:53:33;;;;;;;11.93;9.00;;;12.00;99.90;;;11.16;99.83;97836.47;5029159;28;20038;-66
2021/06/26 01:56:21;;;;;;;12.35;9.05;;;12.00;99.90;;;10.98;100.00;97830.25;5035266;28;20120;-66
2021/06/26 01:59:08;;;;;;;16.75;9.60;;;12.00;99.90;;;11.06;99.70;97832.53;5030269;28;20046;-66
2021/06/26 02:01:55;;;;;;;16.73;12.23;;;12.00;99.90;;;10.94;99.92;97831.28;5044730;28;20396;-66
2021/06/26 02:04:43;;;;;;;13.57;10.95;;;11.90;99.90;;;10.97;100.00;97827.72;5029375;28;20560;-66
2021/06/26 02:07:30;;;;;;;13.25;9.90;;;11.90;99.90;;;10.98;100.00;97824.22;5033197;28;20452;-67
2021/06/26 02:10:18;;;;;;;15.73;9.85;;;12.00;99.90;;;11.04;99.73;97827.44;5031264;28;20129;-67
2021/06/26 02:13:06;;;;;;;25.48;13.52;;;11.90;99.90;;;10.88;100.00;97832.38;5027977;28;20537;-67
2021/06/26 02:15:54;;;;;;;13.68;9.52;;;11.90;99.90;;;10.91;100.00;97831.41;4997798;28;20121;-67
2021/06/26 02:18:41;;;;;;;22.75;13.32;;;12.00;99.90;;;10.83;100.00;97828.25;5025442;28;20194;-67
2021/06/26 02:21:29;;;;;;;18.52;11.00;;;12.00;99.90;;;10.91;99.93;97830.56;5023294;28;20061;-67
2021/06/26 02:24:16;;;;;;;13.35;10.20;;;12.00;99.90;;;10.93;99.42;97831.38;5025829;28;20077;-67
2021/06/26 02:27:03;;;;;;;12.95;9.90;;;12.00;99.90;;;10.94;98.79;97831.28;5027402;28;20537;-67
2021/06/26 02:29:51;;;;;;;13.27;11.20;;;12.00;99.90;;;10.85;98.79;97836.84;5017283;28;20096;-67
2021/06/26 02:32:40;;;;;;;14.35;9.50;;;11.90;99.90;;;10.82;99.25;97832.63;5019583;28;20065;-67
2021/06/26 02:35:27;;;;;;;23.83;12.13;;;11.90;99.90;;;10.74;99.44;97839.00;5028892;28;20509;-67
2021/06/26 02:38:15;;;;;;;13.13;9.27;;;11.90;99.90;;;10.86;98.30;97836.78;5010820;28;20085;-67
2021/06/26 02:41:03;;;;;;;11.27;8.93;;;11.80;99.90;;;10.85;98.32;97831.66;5020944;28;20050;-67
2021/06/26 02:43:50;;;;;;;12.40;9.50;;;11.80;99.90;;;10.85;97.94;97836.84;5028130;28;20128;-67
2021/06/26 02:46:38;;;;;;;13.18;10.25;;;11.70;99.90;;;10.71;98.57;97831.34;5026144;28;20068;-67
2021/06/26 02:49:25;;;;;;;13.18;9.25;;;11.80;99.90;;;10.70;98.93;97832.25;5027279;28;20092;-67
2021/06/26 02:52:12;;;;;;;12.90;9.63;;;11.80;99.90;;;10.63;98.96;97824.72;5030173;28;20417;-67
2021/06/26 02:55:00;;;;;;;13.65;10.48;;;11.80;99.90;;;10.58;99.36;97828.38;5010512;28;20144;-67
2021/06/26 02:57:47;;;;;;;15.60;10.50;;;11.80;99.90;;;10.59;99.40;97827.50;5023640;28;20126;-67
2021/06/26 03:00:34;;;;;;;13.23;9.07;;;11.80;99.90;;;10.58;99.01;97823.19;5029042;28;20171;-67
2021/06/26 03:03:23;;;;;;;13.18;10.05;;;11.70;99.90;;;10.58;99.17;97818.00;5028119;28;20034;-67
2021/06/26 03:06:10;;;;;;;12.90;9.48;;;11.70;99.90;;;10.37;100.00;97822.25;5025413;28;20425;-67
2021/06/26 03:08:58;;;;;;;12.32;9.63;;;11.70;99.90;;;10.37;99.96;97823.09;5026525;28;20049;-67
2021/06/26 03:11:45;;;;;;;16.58;11.82;;;11.60;99.90;;;10.31;100.00;97819.88;5016993;28;20050;-66
2021/06/26 03:14:32;;;;;;;14.65;10.90;;;11.50;99.90;;;10.19;100.00;97824.59;5030491;28;20041;-67
2021/06/26 03:17:20;;;;;;;17.52;11.85;;;11.50;99.90;;;10.14;100.00;97823.09;5030403;28;20405;-67
2021/06/26 03:20:08;;;;;;;13.85;11.35;;;11.50;99.90;;;10.11;100.00;97824.06;5037116;28;20544;-67
2021/06/26 03:22:56;;;;;;;11.90;10.40;;;11.50;99.90;;;10.08;100.00;97824.19;5024883;28;20037;-67
2021/06/26 03:25:43;;;;;;;19.75;10.77;;;11.50;99.90;;;10.11;100.00;97824.06;5032753;28;20393;-66
2021/06/26 03:28:32;;;;;;;10.63;8.43;;;11.50;99.90;;;10.23;100.00;97822.75;5019920;28;20038;-67
2021/06/26 03:31:19;;;;;;;13.32;9.55;;;11.50;99.90;;;10.32;99.34;97819.00;5031225;28;20037;-67
2021/06/26 03:34:07;;;;;;;14.98;10.23;;;11.50;99.90;;;10.44;99.13;97818.53;5031124;28;20382;-67
2021/06/26 03:36:54;;;;;;;15.15;10.43;;;11.50;99.90;;;10.49;98.39;97815.75;5027838;28;20492;-67
2021/06/26 03:39:41;;;;;;;9.20;7.35;;;11.50;99.90;;;10.56;97.33;97812.88;5030739;28;20053;-67
2021/06/26 03:42:29;;;;;;;15.63;9.85;;;11.60;99.90;;;10.39;97.75;97817.88;5026445;28;20068;-67
2021/06/26 03:45:16;;;;;;;9.80;7.72;;;11.60;99.90;;;10.44;97.54;97816.78;5014930;28;20041;-67
2021/06/26 03:48:04;;;;;;;11.23;7.75;;;11.60;99.90;;;10.57;96.92;97814.56;5027689;28;20038;-67
2021/06/26 03:50:52;;;;;;;9.77;6.35;;;11.60;99.90;;;10.73;95.08;97814.81;5016740;28;20056;-67
2021/06/26 03:53:39;;;;;;;9.40;6.20;;;11.60;99.90;;;10.76;94.18;97813.84;5029954;28;20050;-67
2021/06/26 03:56:26;;;;;;;9.55;6.70;;;11.70;99.90;;;10.78;94.12;97820.66;5023025;28;20552;-68
2021/06/26 03:59:14;;;;;;;11.05;6.15;;;11.70;99.90;;;10.91;93.15;97817.59;5026280;28;20049;-67
2021/06/26 04:02:06;;;;;;;10.20;6.88;;;11.80;99.90;;;11.02;92.41;97820.59;5027370;28;21555;-67
2021/06/26 04:04:54;;;;;;;6.88;5.40;;;11.80;99.90;;;11.18;91.41;97823.44;5010946;28;20184;-66
2021/06/26 04:07:41;;;;;;;7.13;5.22;;;11.90;99.90;;;11.27;90.95;97823.88;5015271;28;20713;-66
2021/06/26 04:10:28;;;;;;;10.98;7.35;;;12.00;99.90;;;11.02;91.97;97828.41;5024414;28;20463;-66
2021/06/26 04:13:16;;;;;;;11.65;7.43;;;12.10;99.90;;;10.87;92.49;97833.28;5027762;28;20038;-66
2021/06/26 04:16:04;;;;;;;11.23;6.88;;;12.00;99.90;;;10.87;92.67;97830.69;5013169;28;20423;-66
2021/06/26 04:18:51;;;;;;;10.27;7.32;;;11.90;99.90;;;10.86;93.10;97828.16;5015360;28;20077;-66
2021/06/26 04:21:39;;;;;;;7.50;5.85;;;11.90;99.90;;;10.56;94.63;97835.38;5028476;28;20045;-66
2021/06/26 04:24:26;;;;;;;13.80;9.90;;;12.00;99.90;;;10.24;96.84;97838.28;5021092;28;20097;-66
2021/06/26 04:27:14;;;;;;;12.20;7.38;;;11.90;99.90;;;10.37;96.95;97827.44;5007090;28;20054;-66
2021/06/26 04:30:02;;;;;;;15.70;9.23;;;11.80;99.90;;;10.64;95.33;97834.19;5029111;28;20077;-66
2021/06/26 04:32:49;;;;;;;14.55;8.73;;;11.80;99.90;;;10.43;96.69;97837.63;5022549;28;20112;-67
2021/06/26 04:35:37;;;;;;;13.57;7.68;;;11.80;99.90;;;10.51;96.48;97837.31;5028610;28;20454;-67
2021/06/26 04:38:24;;;;;;;14.32;7.95;;;11.80;99.90;;;10.50;95.95;97840.81;5027215;28;20065;-67
2021/06/26 04:41:11;;;;;;;9.98;7.68;;;11.90;99.90;;;10.54;95.71;97850.19;5023577;28;20053;-67
2021/06/26 04:43:59;;;;;;;9.25;6.72;;;11.90;99.90;;;11.06;93.49;97841.19;5032369;28;20087;-67
2021/06/26 04:46:46;;;;;;;7.80;6.35;;;12.00;99.90;;;11.20;92.24;97839.78;5027682;28;20149;-66
2021/06/26 04:49:35;;;;;;;14.57;6.18;;;12.10;99.90;;;11.47;91.39;97835.19;5027524;28;20721;-66
2021/06/26 04:52:22;;;;;;;8.40;5.97;;;12.20;99.90;;;11.76;90.74;97833.09;5021805;28;20088;-66
2021/06/26 04:55:10;;;;;;;10.50;8.10;;;12.60;99.90;;;11.48;90.37;97829.94;5024001;28;20466;-66
2021/06/26 04:57:57;;;;;;;10.32;7.00;;;12.80;99.90;;;11.49;90.79;97835.97;5028992;28;20042;-67
2021/06/26 05:00:45;;;;;;;9.23;7.68;;;12.90;99.90;;;11.46;91.64;97836.94;5019289;28;20124;-67
2021/06/26 05:03:32;;;;;;;9.57;7.47;;;12.90;99.90;;;11.44;91.73;97833.56;5026810;28;20087;-67
2021/06/26 05:06:20;;;;;;;11.23;7.45;;;12.90;99.90;;;11.75;91.07;97832.28;5025601;28;20037;-67
2021/06/26 05:09:07;;;;;;;10.70;7.60;;;13.00;99.90;;;11.79;92.16;97836.44;5026341;28;20041;-67
2021/06/26 05:11:54;;;;;;;9.45;7.18;;;13.10;99.90;;;12.19;91.17;97834.69;5027496;28;20111;-67
2021/06/26 05:14:41;;;;;;;12.18;9.57;;;13.20;99.90;;;12.10;91.29;97830.75;5025050;28;20172;-67
2021/06/26 05:17:29;;;;;;;9.85;7.15;;;13.30;99.90;;;12.38;90.32;97839.06;5027687;28;20095;-66
2021/06/26 05:20:17;;;;;;;9.90;8.27;;;13.50;99.90;;;12.39;90.44;97840.78;5013459;28;20505;-67
2021/06/26 05:23:17;;;;;;;10.98;9.00;;;13.70;99.90;;;12.46;91.69;97835.19;5029651;28;20399;-66
2021/06/26 05:26:04;;;;;;;12.23;9.82;;;13.80;99.90;;;12.26;93.02;97838.72;5030153;28;20126;-67
2021/06/26 05:28:52;;;;;;;12.43;9.55;;;13.90;99.90;;;12.30;93.71;97829.84;5028917;28;20462;-67
2021/06/26 05:31:39;;;;;;;12.43;10.57;;;13.90;99.90;;;12.49;93.71;97831.59;5027489;28;20115;-67
2021/06/26 05:34:26;;;;;;;14.85;12.20;;;14.00;99.90;;;12.62;94.00;97829.28;5010363;28;20050;-67
2021/06/26 05:37:14;;;;;;;14.63;10.40;;;14.10;99.90;;;12.96;93.05;97831.13;5015562;28;20052;-66
2021/06/26 05:40:01;;;;;;;12.60;9.10;;;14.20;99.90;;;13.50;90.75;97820.69;5028949;28;20049;-67
2021/06/26 05:42:48;;;;;;;14.25;11.23;;;14.40;99.90;;;13.21;91.81;97830.78;5026323;28;20041;-67
2021/06/26 05:45:36;;;;;;;11.77;10.02;;;14.70;99.90;;;13.44;92.02;97827.06;5028505;28;20128;-67
2021/06/26 05:48:23;;;;;;;12.82;10.20;;;14.90;99.90;;;13.79;90.41;97824.41;5028663;28;20061;-67
2021/06/26 05:51:14;;;;;;;21.27;12.40;;;15.00;99.90;;;13.95;90.24;97817.47;5028621;28;20041;-66
2021/06/26 05:54:02;;;;;;;19.67;12.30;;;15.10;99.90;;;14.14;88.93;97834.78;5025783;28;20504;-67
2021/06/26 05:56:49;;;;;;;16.38;11.10;;;15.30;99.90;;;14.60;88.45;97834.97;5013908;28;20100;-67
2021/06/26 05:59:37;;;;;;;16.67;12.10;;;15.60;99.90;;;14.71;87.59;97836.97;5024719;28;20041;-67
2021/06/26 06:02:24;;;;;;;17.77;13.32;;;15.90;99.90;;;14.84;86.67;97840.59;5022717;28;20076;-67
2021/06/26 06:05:13;;;;;;;17.20;12.88;;;16.20;99.90;;;15.05;85.64;97841.16;5028852;28;20482;-66
2021/06/26 06:08:00;;;;;;;16.00;11.23;;;16.30;99.90;;;15.50;85.88;97834.22;5012570;28;20163;-67
2021/06/26 06:10:48;;;;;;;15.25;11.23;;;16.50;99.90;;;15.71;84.35;97839.16;5027862;28;20034;-67
2021/06/26 06:13:35;;;;;;;15.20;10.98;;;16.80;99.90;;;16.03;84.79;97834.59;5016643;28;20069;-67
2021/06/26 06:16:24;;;;;;;15.93;10.70;;;17.10;99.90;;;16.18;83.65;97830.22;5020686;28;20112;-67
2021/06/26 06:19:11;;;;;;;14.70;9.88;;;17.40;99.90;;;16.41;82.71;97841.91;5021779;28;20045;-67
2021/06/26 06:21:59;;;;;;;10.77;8.60;;;17.70;99.90;;;16.76;81.80;97837.06;5025015;28;20524;-67
2021/06/26 06:24:47;;;;;;;13.25;9.30;;;17.90;99.90;;;16.98;81.32;97840.97;5022193;28;20037;-67
2021/06/26 06:27:36;;;;;;;10.73;8.80;;;18.20;99.90;;;17.25;80.48;97844.44;5013878;28;20169;-67
2021/06/26 06:30:24;;;;;;;9.25;7.63;;;18.60;99.90;;;17.33;79.34;97847.41;5026866;28;20037;-67
2021/06/26 06:33:11;;;;;;;10.20;6.50;;;18.70;99.90;;;17.55;78.75;97840.72;5016594;28;20037;-67
2021/06/26 06:36:00;;;;;;;7.75;5.95;;;18.90;99.90;;;17.74;76.78;97845.56;5032093;28;20497;-67
2021/06/26 06:38:48;;;;;;;9.23;5.82;;;19.10;99.90;;;17.95;76.02;97841.53;5029922;28;20146;-67
2021/06/26 06:41:35;;;;;;;8.50;5.80;;;19.20;99.90;;;18.04;74.43;97849.69;5031984;28;20053;-67
2021/06/26 06:44:22;;;;;;;9.02;6.18;;;19.30;99.90;;;18.29;75.12;97848.84;5031587;28;20099;-67
2021/06/26 06:47:10;;;;;;;8.10;5.80;;;19.50;99.90;;;18.32;74.69;97851.28;5028936;28;20104;-67
2021/06/26 06:49:57;;;;;;;9.10;4.90;;;19.70;99.90;;;18.62;74.22;97853.53;5018459;28;20025;-67
2021/06/26 06:52:45;;;;;;;8.23;5.18;;;19.90;99.90;;;18.44;70.47;97849.59;5030977;28;20592;-67
2021/06/26 06:55:32;;;;;;;7.70;4.13;;;20.00;99.90;;;18.70;73.25;97850.34;5032007;28;20049;-67
2021/06/26 06:58:20;;;;;;;6.32;4.63;;;20.00;99.90;;;18.67;70.57;97851.41;5032287;28;20104;-67
2021/06/26 07:01:08;;;;;;;10.00;4.15;;;20.10;99.90;;;18.78;70.76;97851.53;5033509;28;20059;-67
2021/06/26 07:03:55;;;;;;;7.70;4.00;;;20.20;99.90;;;18.91;70.48;97850.66;5029745;28;20049;-67
2021/06/26 07:06:43;;;;;;;8.07;3.92;;;20.30;99.90;;;19.16;69.99;97849.72;5030858;28;20178;-67
2021/06/26 07:09:31;;;;;;;5.53;4.10;;;20.40;99.90;;;19.21;68.72;97853.69;5028135;28;20076;-66
2021/06/26 07:12:18;;;;;;;9.82;4.28;;;20.60;99.90;;;19.22;68.65;97850.06;5023107;28;20045;-66
2021/06/26 07:15:07;;;;;;;6.25;4.30;;;20.70;99.90;;;19.26;67.93;97853.34;5019176;28;20517;-66
2021/06/26 07:17:54;;;;;;;6.28;4.25;;;20.60;99.90;;;19.47;67.41;97845.63;5028241;28;20122;-66
2021/06/26 07:20:42;;;;;;;6.03;4.32;;;20.70;99.90;;;19.57;66.38;97846.63;5028775;28;20103;-65
2021/06/26 07:23:29;;;;;;;10.02;4.72;;;20.90;99.90;;;19.44;66.46;97845.88;5014293;28;20045;-65
2021/06/26 07:26:16;;;;;;;5.47;4.05;;;21.00;99.90;;;19.66;66.80;97845.13;5026447;28;20056;-65
2021/06/26 07:29:04;;;;;;;8.38;4.22;;;21.10;99.90;;;19.76;66.42;97848.75;5010516;28;20096;-65
2021/06/26 07:31:51;;;;;;;7.80;3.88;;;21.20;99.90;;;19.88;66.06;97846.13;5015596;28;20038;-65
2021/06/26 07:34:39;;;;;;;7.32;4.07;;;21.30;99.90;;;19.94;65.21;97840.41;5029018;28;20506;-66
2021/06/26 07:37:27;;;;;;;4.55;3.75;;;21.40;99.90;;;20.03;64.98;97843.16;5031023;28;20042;-65
2021/06/26 07:40:15;;;;;;;6.55;4.57;;;21.50;99.90;;;20.01;64.41;97850.34;5025299;28;20038;-64
2021/06/26 07:43:02;;;;;;;5.75;3.88;;;21.50;99.90;;;20.24;62.30;97843.31;5030657;28;20103;-66
2021/06/26 07:45:50;;;;;;;7.35;3.97;;;21.60;99.90;;;20.29;63.65;97845.56;5014829;28;20056;-65
2021/06/26 07:48:37;;;;;;;9.57;3.80;;;21.60;99.90;;;20.66;63.01;97845.34;5027173;28;20045;-65
2021/06/26 07:51:24;;;;;;;5.60;3.75;;;21.80;99.90;;;20.38;62.13;97842.22;5029890;28;20041;-65
2021/06/26 07:54:12;;;;;;;5.60;3.70;;;22.00;99.90;;;20.76;62.39;97845.47;5022344;28;20124;-65
2021/06/26 07:56:59;;;;;;;5.88;4.40;;;22.10;99.90;;;20.64;61.06;97845.50;5017366;28;20070;-66
2021/06/26 07:59:46;;;;;;;8.63;4.68;;;22.20;99.90;;;20.38;62.54;97839.59;5029097;28;20073;-66
2021/06/26 08:02:34;;;;;;;8.70;4.53;;;22.00;99.90;;;20.72;61.29;97842.22;5029882;28;20160;-66
2021/06/26 08:05:21;;;;;;;7.82;4.47;;;22.10;99.90;;;21.15;61.69;97836.13;5019212;28;20518;-66
2021/06/26 08:08:22;;;;;;;7.63;4.35;;;22.30;99.90;;;20.92;60.74;97839.81;5027448;28;20041;-66
2021/06/26 08:11:09;;;;;;;6.55;4.43;;;22.50;99.90;;;20.95;59.58;97835.09;5026019;28;20037;-65
2021/06/26 08:13:57;;;;;;;7.43;4.55;;;22.50;99.90;;;20.74;60.57;97829.75;5027438;28;20095;-66
2021/06/26 08:16:44;;;;;;;8.30;4.55;;;22.50;99.90;;;20.94;59.59;97830.81;5022406;28;20462;-65
2021/06/26 08:19:31;;;;;;;6.93;3.97;;;22.40;99.90;;;20.73;59.10;97828.06;5023773;28;20048;-66
2021/06/26 08:22:19;;;;;;;7.25;3.35;;;22.50;99.90;;;21.19;58.77;97818.22;5026851;28;20095;-65
2021/06/26 08:25:08;;;;;;;6.40;4.03;;;22.50;99.90;;;20.99;56.30;97823.34;5023675;28;20046;-65
2021/06/26 08:27:55;;;;;;;7.10;3.58;;;22.20;99.90;;;21.14;56.66;97826.50;5011177;28;20295;-66
2021/06/26 08:30:42;;;;;;;10.07;4.40;;;22.30;99.90;;;21.33;56.27;97819.75;5024770;28;20100;-65
2021/06/26 08:33:29;;;;;;;5.22;3.45;;;22.50;99.90;;;21.08;56.60;97822.59;5026716;28;20410;-65
2021/06/26 08:36:17;;;;;;;6.78;3.80;;;22.60;99.90;;;21.29;55.42;97821.78;5017787;28;20037;-66
2021/06/26 08:39:04;;;;;;;10.07;4.05;;;22.60;99.90;;;22.02;54.55;97817.44;5018114;28;20501;-65
2021/06/26 08:41:52;;;;;;;4.68;3.58;;;22.70;99.90;;;22.13;53.79;97814.72;5020371;28;20163;-65
2021/06/26 08:44:40;;;;;;;4.88;3.38;;;22.90;99.90;;;22.23;52.32;97804.19;5024013;28;20053;-65
2021/06/26 08:47:28;;;;;;;6.75;3.80;;;23.00;99.90;;;21.30;53.23;97821.69;5012669;28;20529;-67
2021/06/26 08:50:18;;;;;;;5.15;3.53;;;22.90;99.90;;;21.98;52.83;97812.53;5015196;28;20127;-66
2021/06/26 08:53:06;;;;;;;5.78;4.10;;;22.80;99.90;;;22.27;52.33;97808.25;5018355;28;20045;-66
2021/06/26 08:55:54;;;;;;;7.03;3.75;;;23.10;99.90;;;22.79;50.24;97809.97;5007929;28;20041;-66
2021/06/26 08:58:41;;;;;;;6.20;3.00;;;23.80;99.90;;;24.16;48.53;97816.88;5025603;28;20256;-65
2021/06/26 09:01:28;;;;;;;5.63;3.13;;;24.20;99.90;;;24.67;46.25;97810.25;5012967;28;20518;-65
2021/06/26 09:04:19;;;;;;;4.95;3.15;;;25.00;99.90;;;24.73;47.39;97804.34;5029331;28;20044;-66
2021/06/26 09:07:06;;;;;;;5.22;3.17;;;25.30;99.90;;;24.91;45.45;97807.03;5029597;28;20041;-66
2021/06/26 09:09:56;;;;;;;6.10;2.78;;;25.50;99.90;;;24.38;46.09;97813.00;5028224;28;20034;-67
2021/06/26 09:12:45;;;;;;;5.28;2.75;;;25.40;99.90;;;24.57;44.52;97812.13;5027454;28;20045;-67
2021/06/26 09:15:33;;;;;;;4.65;2.80;;;25.40;99.90;;;24.13;46.90;97811.84;5004372;28;20088;-67
2021/06/26 09:18:21;;;;;;;6.13;2.90;;;25.00;99.90;;;23.17;47.94;97814.47;5028718;28;20679;-67
2021/06/26 09:21:37;;;;;;;4.18;2.83;;;24.70;99.90;;;23.11;48.38;97810.56;5023912;28;20041;-67
2021/06/26 09:24:24;;;;;;;14.20;3.38;;;24.30;99.90;;;23.64;47.42;97811.94;5010270;28;20033;-67
2021/06/26 09:27:15;;;;;;;5.90;2.50;;;24.30;99.90;;;24.05;45.15;97804.63;5028996;28;20042;-67
2021/06/26 09:30:03;;;;;;;6.45;3.63;;;24.60;99.90;;;25.09;44.76;97815.00;5017971;28;20118;-66
2021/06/26 09:32:50;;;;;;;8.52;3.33;;;24.90;99.90;;;26.29;41.04;97809.13;5023603;28;20083;-67
2021/06/26 09:35:39;;;;;;;5.57;2.85;;;25.90;99.90;;;25.84;43.22;97812.84;5025955;28;20493;-67
2021/06/26 09:38:26;;;;;;;6.05;3.20;;;26.00;99.90;;;24.94;44.02;97817.34;5021038;28;20084;-66
2021/06/26 09:41:16;;;;;;;5.18;2.65;;;25.90;99.90;;;24.67;43.88;97814.72;5012171;28;20061;-66
2021/06/26 09:44:12;;;;;;;4.03;2.65;;;25.60;99.90;;;24.01;45.87;97811.19;5023656;28;20042;-67
2021/06/26 09:47:00;;;;;;;3.50;2.80;;;25.30;99.90;;;23.68;46.01;97808.03;5021629;28;20033;-67
2021/06/26 09:49:47;;;;;;;6.50;3.15;;;24.80;99.90;;;24.39;44.98;97810.22;5019888;28;20480;-67
2021/06/26 09:52:41;;;;;;;5.32;3.08;;;25.00;99.90;;;25.58;42.42;97810.13;5026003;28;20034;-69
2021/06/26 09:55:35;;;;;;;4.95;2.60;;;25.30;99.90;;;24.80;44.15;97810.72;5026279;28;20050;-67
2021/06/26 09:58:24;;;;;;;5.25;3.05;;;25.40;99.90;;;24.14;45.08;97811.72;5027044;28;20391;-67
2021/06/26 10:01:11;;;;;;;5.97;3.17;;;24.70;99.90;;;24.50;44.41;97808.41;5032900;28;20107;-67
2021/06/26 10:03:59;;;;;;;4.45;2.80;;;25.00;99.90;;;24.23;45.00;97806.53;5030716;28;20176;-67
2021/06/26 10:06:47;;;;;;;4.47;3.35;;;25.00;99.90;;;23.85;45.43;97797.72;5017737;28;20080;-67
2021/06/26 10:09:34;;;;;;;5.28;2.88;;;24.70;99.90;;;24.05;45.61;97799.31;5015107;28;20033;-67
2021/06/26 10:12:22;;;;;;;4.82;3.33;;;24.50;99.90;;;24.42;45.18;97804.59;5028242;28;20036;-66
2021/06/26 10:15:12;;;;;;;6.07;2.78;;;24.60;99.90;;;24.94;44.04;97808.53;5031512;28;20048;-67
2021/06/26 10:18:00;;;;;;;6.38;2.60;;;24.90;99.90;;;24.83;43.47;97797.13;5027966;28;20096;-67
2021/06/26 10:20:48;;;;;;;5.00;3.08;;;25.10;99.90;;;25.89;41.88;97801.75;5028277;28;20077;-67
2021/06/26 10:23:36;;;;;;;3.15;2.28;;;25.50;99.90;;;26.91;39.50;97800.91;5020071;28;20112;-67
2021/06/26 10:26:25;;;;;;;5.05;2.20;;;26.10;99.90;;;25.94;41.50;97793.31;5016397;28;20049;-67
2021/06/26 10:29:15;;;;;;;4.38;2.55;;;26.20;99.90;;;25.37;40.51;97797.19;5030845;28;20084;-68
2021/06/26 10:32:12;;;;;;;6.10;2.95;;;26.10;99.90;;;24.95;44.27;97799.56;5032946;28;20060;-67
2021/06/26 10:35:12;;;;;;;4.35;2.88;;;25.80;99.90;;;23.82;46.21;97793.53;5015865;28;20088;-67
2021/06/26 10:38:12;;;;;;;5.10;2.97;;;24.80;99.90;;;23.42;47.82;97797.19;5015611;28;20081;-67
2021/06/26 10:40:59;;;;;;;4.53;2.85;;;24.50;99.90;;;23.08;47.86;97792.34;5010839;28;20096;-67
2021/06/26 10:44:00;;;;;;;5.70;2.90;;;24.10;99.90;;;22.85;49.24;97789.03;5030441;28;20045;-66
2021/06/26 10:46:48;;;;;;;3.83;2.03;;;23.90;99.90;;;23.23;47.04;97791.91;5022142;28;20049;-67
2021/06/26 10:49:35;;;;;;;4.97;2.05;;;24.20;99.90;;;23.58;47.00;97784.22;5015154;28;20049;-67
2021/06/26 10:52:22;;;;;;;3.97;2.90;;;24.50;99.90;;;24.61;44.71;97789.63;5020701;28;20405;-66
2021/06/26 10:55:10;;;;;;;3.03;2.17;;;25.10;99.90;;;24.49;45.66;97788.13;5017526;28;20046;-67
2021/06/26 10:57:59;;;;;;;4.15;2.65;;;25.40;99.90;;;24.57;44.17;97781.09;5030462;28;20120;-67
2021/06/26 11:00:47;;;;;;;5.07;2.50;;;25.60;99.90;;;24.54;42.87;97784.06;5028258;28;20167;-67
2021/06/26 11:03:34;;;;;;;5.22;2.35;;;25.60;99.90;;;24.34;45.60;97782.47;5031825;28;20445;-67
2021/06/26 11:06:29;;;;;;;4.05;2.25;;;25.40;99.90;;;23.82;46.96;97782.09;5016075;28;20144;-67
2021/06/26 11:09:17;;;;;;;5.20;2.72;;;25.00;99.90;;;23.65;46.91;97773.03;5026670;28;20064;-67
2021/06/26 11:12:09;;;;;;;3.60;2.70;;;24.80;99.90;;;25.11;43.14;97775.00;5020221;28;20145;-68
2021/06/26 11:14:57;;;;;;;4.43;2.60;;;25.30;99.90;;;25.82;42.91;97769.63;5023229;28;20190;-67
2021/06/26 11:17:45;;;;;;;4.63;2.50;;;26.00;99.90;;;27.88;39.76;97762.97;5031858;28;20200;-68
2021/06/26 11:20:35;;;;;;;4.13;2.40;;;27.10;99.90;;;26.81;39.55;97765.56;5030434;28;20486;-67
2021/06/26 11:23:23;;;;;;;7.57;3.00;;;27.40;99.90;;;25.78;40.94;97773.56;5028592;28;20052;-67
2021/06/26 11:26:10;;;;;;;5.47;2.28;;;26.80;99.90;;;24.43;42.57;97765.66;5026611;28;20038;-67
2021/06/26 11:28:58;;;;;;;3.13;1.90;;;27.00;99.50;;;24.76;42.85;97766.88;5022825;28;20510;-67
2021/06/26 11:31:45;;;;;;;5.70;2.60;;;26.70;99.70;;;25.77;42.70;97761.28;5022231;28;20049;-67
2021/06/26 11:34:34;;;;;;;4.78;1.90;;;26.60;99.90;;;25.85;41.77;97758.66;5016242;28;20045;-67
2021/06/26 11:37:30;;;;;;;3.13;2.15;;;26.60;99.90;;;24.65;43.47;97771.56;5021074;28;20038;-67
2021/06/26 11:40:22;;;;;;;3.22;2.00;;;25.90;99.90;;;24.71;44.02;97758.53;5030228;28;20042;-68